createdAt,value
2019-04-03T00:04:04.963Z,96853.86
2019-04-03T00:06:54.772Z,96867.52
2019-04-03T00:09:24.103Z,96849.66
2019-04-03T00:12:12.824Z,96856.00
2019-04-03T00:14:43.140Z,96856.00
2019-04-03T00:17:42.058Z,96857.87
2019-04-03T00:20:11.519Z,96857.87
2019-04-03T00:22:40.846Z,96854.72
2019-04-03T00:25:22.835Z,96852.48
2019-04-03T00:28:04.120Z,96842.95
2019-04-03T00:30:33.457Z,96842.95
2019-04-03T00:33:02.784Z,96844.59
2019-04-03T00:35:44.580Z,96844.21
2019-04-03T00:38:13.901Z,96844.21
2019-04-03T00:41:02.580Z,96833.02
2019-04-03T00:43:31.910Z,96833.02
2019-04-03T00:46:20.503Z,96837.66
2019-04-03T00:48:49.827Z,96837.09
2019-04-03T00:51:31.898Z,96826.08
2019-04-03T00:54:01.222Z,96838.83
2019-04-03T00:56:36.401Z,96838.83
2019-04-03T00:59:05.731Z,96830.05
2019-04-03T01:01:47.411Z,96817.77
2019-04-03T01:04:29.099Z,96830.91
2019-04-03T01:07:10.685Z,96826.53
2019-04-03T01:09:52.000Z,96820.39
2019-04-03T01:12:21.507Z,96820.39
2019-04-03T01:14:50.836Z,96833.88
2019-04-03T01:17:34.137Z,96835.07
2019-04-03T01:20:15.455Z,96840.96
2019-04-03T01:22:44.805Z,96840.96
2019-04-03T01:25:33.453Z,96843.90
2019-04-03T01:28:03.089Z,96827.89
2019-04-03T01:30:58.585Z,96840.84
2019-04-03T01:33:39.738Z,96837.59
2019-04-03T01:36:09.062Z,96837.59
2019-04-03T01:38:57.747Z,96830.27
2019-04-03T01:41:39.269Z,96827.27
2019-04-03T01:44:20.601Z,96829.21
2019-04-03T01:46:50.061Z,96829.21
2019-04-03T01:49:19.332Z,96818.48
2019-04-03T01:51:48.659Z,96815.94
2019-04-03T01:54:17.988Z,96815.08
2019-04-03T01:56:47.321Z,96806.20
2019-04-03T01:59:16.878Z,96815.13
2019-04-03T02:01:58.505Z,96811.13
2019-04-03T02:04:27.966Z,96811.13
2019-04-03T02:06:57.231Z,96806.84
2019-04-03T02:09:26.561Z,96807.92
2019-04-03T02:12:15.368Z,96789.89
2019-04-03T02:14:44.626Z,96789.89
2019-04-03T02:17:33.293Z,96800.67
2019-04-03T02:20:14.914Z,96786.24
2019-04-03T02:22:45.872Z,96786.24
2019-04-03T02:25:34.542Z,96801.48
2019-04-03T02:28:16.562Z,96791.30
2019-04-03T02:30:47.173Z,96791.30
2019-04-03T02:33:22.672Z,96788.23
2019-04-03T02:36:04.604Z,96788.11
2019-04-03T02:38:34.256Z,96788.11
2019-04-03T02:41:15.840Z,96790.48
2019-04-03T02:43:59.548Z,96790.48
2019-04-03T02:46:21.778Z,96790.72
2019-04-03T02:48:52.746Z,96784.90
2019-04-03T02:51:22.203Z,96793.77
2019-04-03T02:56:51.999Z,96798.66
2019-04-03T02:59:33.588Z,96796.22
2019-04-03T03:02:02.926Z,96798.20
2019-04-03T03:07:58.469Z,96806.03
2019-04-03T03:13:33.614Z,96801.64
2019-04-03T03:16:10.771Z,96810.72
2019-04-03T03:18:42.006Z,96807.51
2019-04-03T03:21:44.719Z,96808.33
2019-04-03T03:24:14.834Z,96813.09
2019-04-03T03:33:26.795Z,96804.33
2019-04-03T03:35:57.866Z,96798.69
2019-04-03T03:38:33.621Z,96798.97
2019-04-03T03:41:42.860Z,96797.95
2019-04-03T03:50:26.716Z,96784.92
2019-04-03T03:59:42.738Z,96787.83
2019-04-03T04:05:14.277Z,96789.27
2019-04-03T04:08:45.225Z,96788.22
2019-04-03T04:11:20.933Z,96778.33
2019-04-03T04:14:09.693Z,96778.30
2019-04-03T04:23:14.567Z,96773.88
2019-04-03T04:25:44.630Z,96779.79
2019-04-03T04:28:25.126Z,96777.33
2019-04-03T04:30:54.525Z,96776.02
2019-04-03T04:33:24.094Z,96771.75
2019-04-03T04:36:04.330Z,96764.92
2019-04-03T04:38:33.677Z,96767.34
2019-04-03T04:41:22.129Z,96767.59
2019-04-03T04:43:51.468Z,96773.94
2019-04-03T04:46:20.809Z,96765.82
2019-04-03T04:48:51.669Z,96767.77
2019-04-03T04:51:40.294Z,96764.84
2019-04-03T04:54:30.527Z,96769.13
2019-04-03T05:00:18.456Z,96753.52
2019-04-03T05:02:50.369Z,96761.18
2019-04-03T05:05:26.422Z,96756.86
2019-04-03T05:08:01.940Z,96753.89
2019-04-03T05:10:41.146Z,96753.56
2019-04-03T05:13:10.513Z,96754.23
2019-04-03T05:15:39.890Z,96747.49
2019-04-03T05:18:09.232Z,96741.88
2019-04-03T05:20:38.573Z,96744.04
2019-04-03T05:23:07.917Z,96745.78
2019-04-03T05:25:37.274Z,96742.56
2019-04-03T05:28:06.931Z,96743.70
2019-04-03T05:30:37.760Z,96741.53
2019-04-03T05:33:52.844Z,96737.50
2019-04-03T05:36:22.180Z,96736.13
2019-04-03T05:38:53.443Z,96743.40
2019-04-03T05:41:28.662Z,96738.05
2019-04-03T05:44:04.477Z,96729.72
2019-04-03T05:46:44.953Z,96739.13
2019-04-03T05:49:14.326Z,96739.08
2019-04-03T05:51:43.638Z,96748.44
2019-04-03T05:54:14.655Z,96744.30
2019-04-03T05:57:03.111Z,96741.19
2019-04-03T05:59:33.465Z,96744.99
2019-04-03T06:02:22.606Z,96741.73
2019-04-03T06:04:51.991Z,96744.73
2019-04-03T06:07:21.357Z,96739.40
2019-04-03T06:09:53.108Z,96738.63
2019-04-03T06:12:40.825Z,96733.55
2019-04-03T06:15:34.966Z,96722.27
2019-04-03T06:18:11.576Z,96721.14
2019-04-03T06:20:42.547Z,96713.63
2019-04-03T06:23:31.043Z,96712.94
2019-04-03T06:26:02.094Z,96710.53
2019-04-03T06:28:50.702Z,96709.33
2019-04-03T06:31:20.056Z,96706.67
2019-04-03T06:33:51.142Z,96705.81
2019-04-03T06:36:26.012Z,96702.85
2019-04-03T06:38:56.449Z,96697.35
2019-04-03T06:41:31.883Z,96694.72
2019-04-03T06:44:01.222Z,96697.80
2019-04-03T06:46:30.560Z,96694.49
2019-04-03T06:48:59.925Z,96685.20
2019-04-03T06:51:29.615Z,96687.23
2019-04-03T06:53:59.968Z,96682.20
2019-04-03T06:56:35.897Z,96686.73
2019-04-03T06:59:05.184Z,96687.56
2019-04-03T07:01:53.859Z,96691.05
2019-04-03T07:04:23.221Z,96691.05
2019-04-03T07:06:55.366Z,96682.09
2019-04-03T07:09:35.274Z,96683.81
2019-04-03T07:12:05.140Z,96686.20
2019-04-03T07:14:34.549Z,96679.09
2019-04-03T07:17:05.804Z,96676.18
2019-04-03T07:20:13.426Z,96680.95
2019-04-03T07:22:37.310Z,96680.95
2019-04-03T07:28:30.177Z,96671.28
2019-04-03T07:31:17.520Z,96671.28
2019-04-03T07:33:47.259Z,96671.02
2019-04-03T07:36:16.757Z,96672.87
2019-04-03T07:39:12.095Z,96679.38
2019-04-03T07:41:41.710Z,96679.38
2019-04-03T07:44:50.879Z,96676.62
2019-04-03T07:47:20.427Z,96676.62
2019-04-03T07:50:11.640Z,96676.57
2019-04-03T07:52:48.030Z,96655.36
2019-04-03T07:55:24.285Z,96655.36
2019-04-03T07:57:59.892Z,96664.54
2019-04-03T08:00:38.361Z,96650.55
2019-04-03T08:03:12.633Z,96653.28
2019-04-03T08:05:41.981Z,96656.48
2019-04-03T08:08:11.304Z,96665.84
2019-04-03T08:10:40.636Z,96667.86
2019-04-03T08:13:10.308Z,96648.52
2019-04-03T08:15:40.182Z,96673.25
2019-04-03T08:18:16.652Z,96665.44
2019-04-03T08:20:51.196Z,96661.84
2019-04-03T08:23:32.492Z,96665.09
2019-04-03T08:26:01.849Z,96665.09
2019-04-03T08:28:50.471Z,96685.04
2019-04-03T08:31:19.799Z,96685.04
2019-04-03T08:34:18.336Z,96672.59
2019-04-03T08:36:51.914Z,96682.01
2019-04-03T08:39:49.180Z,96674.80
2019-04-03T08:42:23.420Z,96674.80
2019-04-03T08:44:52.764Z,96686.67
2019-04-03T08:47:36.840Z,96689.45
2019-04-03T08:50:45.602Z,96689.45
2019-04-03T08:53:34.273Z,96690.06
2019-04-03T08:56:17.111Z,96687.50
2019-04-03T08:58:47.103Z,96692.50
2019-04-03T09:01:23.279Z,96692.50
2019-04-03T09:04:12.067Z,96690.16
2019-04-03T09:06:41.406Z,96690.16
2019-04-03T09:09:30.538Z,96691.27
2019-04-03T09:12:19.212Z,96684.81
2019-04-03T09:14:48.556Z,96684.81
2019-04-03T09:17:30.094Z,96673.96
2019-04-03T09:19:59.439Z,96673.96
2019-04-03T09:22:34.446Z,96672.55
2019-04-03T09:25:43.841Z,96682.19
2019-04-03T09:28:25.183Z,96650.13
2019-04-03T09:30:54.504Z,96650.13
2019-04-03T09:33:25.216Z,96664.95
2019-04-03T09:36:26.070Z,96661.22
2019-04-03T09:39:11.128Z,96653.94
2019-04-03T09:41:40.986Z,96653.94
2019-04-03T09:44:30.985Z,96645.20
2019-04-03T09:47:02.952Z,96629.63
2019-04-03T09:50:09.898Z,96622.81
2019-04-03T09:52:47.659Z,96622.81
2019-04-03T09:55:35.924Z,96613.88
2019-04-03T09:58:04.205Z,96613.88
2019-04-03T10:00:41.334Z,96591.38
2019-04-03T10:03:22.494Z,96607.33
2019-04-03T10:06:00.859Z,96610.48
2019-04-03T10:09:00.194Z,96601.04
2019-04-03T10:11:31.306Z,96594.73
2019-04-03T10:14:00.777Z,96592.95
2019-04-03T10:16:40.923Z,96596.08
2019-04-03T10:19:12.441Z,96594.78
2019-04-03T10:22:00.790Z,96596.48
2019-04-03T10:24:40.781Z,96588.41
2019-04-03T10:27:11.091Z,96582.53
2019-04-03T10:30:00.471Z,96572.84
2019-04-03T10:32:30.203Z,96569.88
2019-04-03T10:35:19.995Z,96562.52
2019-04-03T10:37:49.334Z,96557.05
2019-04-03T10:40:18.881Z,96542.70
2019-04-03T10:42:48.277Z,96538.74
2019-04-03T10:48:19.120Z,96538.42
2019-04-03T10:50:48.413Z,96532.27
2019-04-03T10:53:19.845Z,96528.69
2019-04-03T10:55:54.876Z,96524.53
2019-04-03T10:58:30.803Z,96516.13
2019-04-03T11:01:00.494Z,96508.16
2019-04-03T11:03:29.819Z,96505.99
2019-04-03T11:05:59.405Z,96502.67
2019-04-03T11:08:28.737Z,96497.69
2019-04-03T11:10:58.872Z,96486.97
2019-04-03T11:13:48.161Z,96477.81
2019-04-03T11:16:18.111Z,96470.79
2019-04-03T11:19:08.001Z,96473.45
2019-04-03T11:21:44.983Z,96465.72
2019-04-03T11:24:20.617Z,96467.12
2019-04-03T11:26:51.760Z,96464.48
2019-04-03T11:29:26.762Z,96462.16
2019-04-03T11:31:56.095Z,96455.77
2019-04-03T11:34:25.766Z,96457.59
2019-04-03T11:37:02.113Z,96452.61
2019-04-03T11:39:44.067Z,96449.81
2019-04-03T11:42:24.883Z,96444.23
2019-04-03T11:44:55.539Z,96440.08
2019-04-03T11:47:24.871Z,96430.12
2019-04-03T11:49:54.590Z,96427.31
2019-04-03T11:52:43.278Z,96420.86
2019-04-03T11:55:13.400Z,96424.83
2019-04-03T11:57:50.000Z,96425.22
2019-04-03T12:03:26.736Z,96411.23
2019-04-03T12:06:07.208Z,96404.48
2019-04-03T12:08:36.552Z,96406.50
2019-04-03T12:11:07.045Z,96403.91
2019-04-03T12:13:44.420Z,96407.31
2019-04-03T12:16:18.855Z,96411.25
2019-04-03T12:18:48.451Z,96411.80
2019-04-03T12:21:18.899Z,96400.66
2019-04-03T12:24:07.194Z,96407.62
2019-04-03T12:26:36.674Z,96408.16
2019-04-03T12:29:13.728Z,96422.12
2019-04-03T12:32:10.260Z,96402.52
2019-04-03T12:35:02.217Z,96417.36
2019-04-03T12:37:44.551Z,96418.46
2019-04-03T12:40:14.794Z,96418.46
2019-04-03T12:42:54.661Z,96416.45
2019-04-03T12:45:25.733Z,96416.97
2019-04-03T12:48:16.875Z,96409.67
2019-04-03T12:51:10.189Z,96427.97
2019-04-03T12:53:39.532Z,96427.97
2019-04-03T12:56:09.171Z,96413.14
2019-04-03T12:58:57.844Z,96413.20
2019-04-03T13:01:39.038Z,96405.37
2019-04-03T13:04:21.126Z,96401.28
2019-04-03T13:06:50.988Z,96401.28
2019-04-03T13:09:27.446Z,96404.58
2019-04-03T13:15:04.596Z,96364.58
2019-04-03T13:17:53.364Z,96364.58
2019-04-03T13:20:43.079Z,96372.37
2019-04-03T13:23:14.374Z,96371.80
2019-04-03T13:26:03.155Z,96359.42
2019-04-03T13:28:40.389Z,96346.98
2019-04-03T13:31:20.105Z,96333.65
2019-04-03T13:34:11.201Z,96323.52
2019-04-03T13:36:59.001Z,96314.73
2019-04-03T13:39:28.749Z,96321.61
2019-04-03T13:41:58.397Z,96335.13
2019-04-03T13:44:38.600Z,96335.86
2019-04-03T13:47:09.117Z,96327.94
2019-04-03T13:49:44.266Z,96315.19
2019-04-03T13:52:13.578Z,96327.37
2019-04-03T13:54:45.213Z,96327.41
2019-04-03T13:57:38.768Z,96336.21
2019-04-03T14:00:59.584Z,96336.21
2019-04-03T14:03:38.459Z,96324.90
2019-04-03T14:06:14.836Z,96300.69
2019-04-03T14:08:45.335Z,96300.69
2019-04-03T14:11:46.784Z,96286.88
2019-04-03T14:14:16.154Z,96286.88
2019-04-03T14:17:06.118Z,96293.94
2019-04-03T14:19:55.128Z,96285.20
2019-04-03T14:22:24.392Z,96275.94
2019-04-03T14:24:53.967Z,96288.72
2019-04-03T14:27:31.273Z,96296.67
2019-04-03T14:30:26.095Z,96300.94
2019-04-03T14:32:55.438Z,96302.70
2019-04-03T14:35:45.933Z,96306.38
2019-04-03T14:38:00.971Z,96312.06
2019-04-03T14:40:35.467Z,96312.31
2019-04-03T14:43:05.200Z,96302.73
2019-04-03T14:45:43.183Z,96285.66
2019-04-03T14:48:18.342Z,96285.70
2019-04-03T14:50:47.659Z,96291.20
2019-04-03T14:53:29.521Z,96291.73
2019-04-03T14:56:00.353Z,96290.79
2019-04-03T14:58:39.814Z,96290.86
2019-04-03T15:01:09.219Z,96291.80
2019-04-03T15:03:38.552Z,96281.92
2019-04-03T15:06:08.365Z,96273.02
2019-04-03T15:08:58.133Z,96270.27
2019-04-03T15:11:27.654Z,96277.36
2019-04-03T15:13:57.405Z,96281.72
2019-04-03T15:16:33.564Z,96262.53
2019-04-03T15:19:02.893Z,96288.23
2019-04-03T15:21:32.285Z,96281.42
2019-04-03T15:24:02.128Z,96290.54
2019-04-03T15:26:38.464Z,96275.19
2019-04-03T15:29:14.572Z,96286.33
2019-04-03T15:31:45.823Z,96290.41
2019-04-03T15:34:34.367Z,96293.12
2019-04-03T15:37:04.254Z,96300.95
2019-04-03T15:39:57.469Z,96316.73
2019-04-03T15:42:30.516Z,96307.89
2019-04-03T15:48:28.335Z,96317.80
2019-04-03T15:50:57.728Z,96330.23
2019-04-03T15:53:29.078Z,96317.92
2019-04-03T15:56:11.464Z,96295.63
2019-04-03T15:58:51.420Z,96285.23
2019-04-03T16:01:31.067Z,96382.15
2019-04-03T16:04:07.231Z,96489.91
2019-04-03T16:06:37.219Z,96453.31
2019-04-03T16:09:13.354Z,96380.50
2019-04-03T16:11:49.374Z,96371.02
2019-04-03T16:14:20.426Z,96433.00
2019-04-03T16:17:09.162Z,96449.13
2019-04-03T16:19:38.598Z,96477.67
2019-04-03T16:22:08.170Z,96471.03
2019-04-03T16:24:45.133Z,96444.77
2019-04-03T16:27:21.169Z,96436.01
2019-04-03T16:29:50.762Z,96447.84
2019-04-03T16:32:41.275Z,96453.02
2019-04-03T16:35:17.519Z,96466.30
2019-04-03T16:37:49.659Z,96490.19
2019-04-03T16:40:38.801Z,96498.76
2019-04-03T16:43:13.945Z,96486.41
2019-04-03T16:45:50.048Z,96462.00
2019-04-03T16:48:25.625Z,96455.72
2019-04-03T16:50:55.584Z,96493.17
2019-04-03T16:53:45.386Z,96522.39
2019-04-03T16:56:16.009Z,96537.64
2019-04-03T16:59:07.319Z,96529.38
2019-04-03T17:01:44.439Z,96519.80
2019-04-03T17:04:59.698Z,96513.36
2019-04-03T17:07:37.529Z,96510.17
2019-04-03T17:10:52.434Z,96496.14
2019-04-03T17:13:22.300Z,96511.51
2019-04-03T17:16:14.500Z,96538.11
2019-04-03T17:18:49.354Z,96540.45
2019-04-03T17:21:27.310Z,96543.81
2019-04-03T17:24:01.617Z,96546.05
2019-04-03T17:26:31.191Z,96539.83
2019-04-03T17:29:05.042Z,96533.41
2019-04-03T17:34:19.629Z,96508.22
2019-04-03T17:37:09.992Z,96502.02
2019-04-03T17:39:46.526Z,96501.08
2019-04-03T17:42:16.182Z,96500.18
2019-04-03T17:44:45.753Z,96499.44
2019-04-03T17:47:42.202Z,96498.11
2019-04-03T17:50:51.699Z,96487.23
2019-04-03T17:53:21.260Z,96487.25
2019-04-03T17:55:50.835Z,96495.63
2019-04-03T17:58:22.046Z,96499.20
2019-04-03T18:00:52.157Z,96502.49
2019-04-03T18:03:40.981Z,96506.88
2019-04-03T18:06:10.556Z,96509.89
2019-04-03T18:08:41.759Z,96522.41
2019-04-03T18:11:13.136Z,96527.73
2019-04-03T18:14:01.703Z,96527.79
2019-04-03T18:16:31.279Z,96529.02
2019-04-03T18:19:20.019Z,96524.49
2019-04-03T18:21:49.746Z,96519.19
2019-04-03T18:24:19.407Z,96518.88
2019-04-03T18:26:49.464Z,96518.02
2019-04-03T18:29:19.032Z,96516.22
2019-04-03T18:31:48.816Z,96522.72
2019-04-03T18:34:19.825Z,96532.55
2019-04-03T18:36:55.439Z,96526.13
2019-04-03T18:39:24.993Z,96519.16
2019-04-03T18:41:54.580Z,96507.92
2019-04-03T18:44:26.028Z,96510.41
2019-04-03T18:47:14.531Z,96525.58
2019-04-03T18:49:44.095Z,96533.11
2019-04-03T18:52:19.567Z,96541.98
2019-04-03T18:54:49.327Z,96539.16
2019-04-03T18:57:18.899Z,96555.38
2019-04-03T18:59:48.479Z,96564.23
2019-04-03T19:02:18.183Z,96561.55
2019-04-03T19:05:26.222Z,96568.95
2019-04-03T19:07:55.922Z,96566.67
2019-04-03T19:10:25.552Z,96565.32
2019-04-03T19:12:55.130Z,96561.48
2019-04-03T19:15:43.803Z,96568.78
2019-04-03T19:18:19.548Z,96571.18
2019-04-03T19:20:50.091Z,96564.34
2019-04-03T19:23:19.656Z,96559.12
2019-04-03T19:25:49.229Z,96550.84
2019-04-03T19:28:18.822Z,96547.25
2019-04-03T19:30:50.003Z,96543.70
2019-04-03T19:33:19.580Z,96551.09
2019-04-03T19:35:49.170Z,96559.20
2019-04-03T19:38:18.715Z,96553.67
2019-04-03T19:40:48.290Z,96547.49
2019-04-03T19:43:17.932Z,96544.72
2019-04-03T19:45:47.654Z,96550.27
2019-04-03T19:48:36.377Z,96561.89
2019-04-03T19:51:25.644Z,96564.06
2019-04-03T19:53:59.643Z,96554.09
2019-04-03T19:56:32.460Z,96554.86
2019-04-03T19:59:04.715Z,96549.34
2019-04-03T20:01:52.397Z,96537.88
2019-04-03T20:04:21.969Z,96536.50
2019-04-03T20:06:52.903Z,96533.14
2019-04-03T20:09:28.219Z,96534.98
2019-04-03T20:11:57.880Z,96527.21
2019-04-03T20:14:27.509Z,96524.14
2019-04-03T20:16:58.563Z,96520.44
2019-04-03T20:19:47.593Z,96517.23
2019-04-03T20:22:17.279Z,96510.25
2019-04-03T20:24:59.225Z,96515.22
2019-04-03T20:27:23.787Z,96511.44
2019-04-03T20:29:53.895Z,96507.50
2019-04-03T20:32:23.571Z,96505.47
2019-04-03T20:34:53.253Z,96501.31
2019-04-03T20:37:25.998Z,96508.44
2019-04-03T20:40:00.602Z,96507.63
2019-04-03T20:42:37.160Z,96504.42
2019-04-03T20:48:40.718Z,96510.34
2019-04-03T20:51:10.289Z,96510.65
2019-04-03T20:53:41.469Z,96507.44
2019-04-03T20:56:11.097Z,96501.88
2019-04-03T20:58:41.001Z,96501.08
2019-04-03T21:01:17.491Z,96498.45
2019-04-03T21:03:47.038Z,96496.47
2019-04-03T21:06:16.658Z,96506.07
2019-04-03T21:08:46.182Z,96514.55
2019-04-03T21:11:15.647Z,96513.02
2019-04-03T21:16:48.042Z,96513.80
2019-04-03T21:19:27.114Z,96521.70
2019-04-03T21:21:57.671Z,96530.39
2019-04-03T21:24:46.595Z,96519.39
2019-04-03T21:27:15.926Z,96525.53
2019-04-03T21:29:45.562Z,96527.66
2019-04-03T21:32:14.891Z,96528.77
2019-04-03T21:34:44.214Z,96524.77
2019-04-03T21:37:14.084Z,96518.72
2019-04-03T21:43:12.651Z,96518.73
2019-04-03T21:45:42.097Z,96510.13
2019-04-03T21:48:13.553Z,96508.97
2019-04-03T21:51:01.567Z,96510.01
2019-04-03T21:53:30.893Z,96513.97
2019-04-03T21:56:02.557Z,96516.52
2019-04-03T21:58:37.867Z,96517.65
2019-04-03T22:01:32.250Z,96525.80
2019-04-03T22:04:01.694Z,96521.84
2019-04-03T22:06:31.066Z,96516.23
2019-04-03T22:09:00.763Z,96521.90
2019-04-03T22:11:50.510Z,96525.13
2019-04-03T22:14:19.838Z,96512.33
2019-04-03T22:16:50.790Z,96518.62
2019-04-03T22:19:27.405Z,96519.66
2019-04-03T22:22:06.057Z,96508.52
2019-04-03T22:24:37.435Z,96517.27
2019-04-03T22:27:25.565Z,96524.30
2019-04-03T22:29:54.846Z,96526.03
2019-04-03T22:32:24.817Z,96519.44
2019-04-03T22:35:13.250Z,96517.13
2019-04-03T22:37:42.578Z,96500.32
2019-04-03T22:40:11.956Z,96505.01
2019-04-03T22:42:41.287Z,96501.05
2019-04-03T22:45:10.674Z,96508.02
2019-04-03T22:47:40.005Z,96500.17
2019-04-03T22:53:29.598Z,96508.91
2019-04-03T22:55:58.927Z,96510.93
2019-04-03T22:58:28.259Z,96502.35
2019-04-03T23:00:59.299Z,96495.21
2019-04-03T23:03:38.169Z,96501.33
2019-04-03T23:06:07.485Z,96501.55
2019-04-03T23:08:36.817Z,96506.52
2019-04-03T23:11:06.136Z,96494.48
2019-04-03T23:13:35.657Z,96480.11
2019-04-03T23:16:31.207Z,96480.06
2019-04-03T23:19:00.541Z,96484.27
2019-04-03T23:21:29.863Z,96485.05
2019-04-03T23:23:59.264Z,96471.84
2019-04-03T23:26:31.789Z,96472.21
2019-04-03T23:29:05.877Z,96459.94
2019-04-03T23:31:46.022Z,96452.66
2019-04-03T23:34:18.705Z,96454.89
2019-04-03T23:37:05.474Z,96453.41
2019-04-03T23:39:34.886Z,96445.12
2019-04-03T23:42:04.960Z,96451.20
2019-04-03T23:44:42.139Z,96437.00
2019-04-03T23:47:17.085Z,96423.55
2019-04-03T23:49:53.673Z,96416.16
2019-04-03T23:52:30.623Z,96393.48
2019-04-03T23:55:19.315Z,96409.11
2019-04-03T23:57:48.705Z,96416.91
